createdAt,value
2019-06-07T00:01:48.223Z,3.10
2019-06-07T00:04:21.302Z,3.30
2019-06-07T00:06:48.957Z,3.70
2019-06-07T00:09:22.289Z,3.03
2019-06-07T00:11:49.444Z,3.53
2019-06-07T00:14:21.022Z,2.87
2019-06-07T00:16:50.187Z,3.57
2019-06-07T00:19:19.577Z,2.90
2019-06-07T00:24:21.859Z,4.10
2019-06-07T00:26:58.255Z,4.50
2019-06-07T00:29:22.552Z,3.40
2019-06-07T00:31:51.931Z,3.03
2019-06-07T00:34:23.012Z,2.80
2019-06-07T00:36:52.801Z,3.80
2019-06-07T00:39:25.681Z,4.40
2019-06-07T00:41:53.495Z,3.17
2019-06-07T00:44:23.499Z,4.10
2019-06-07T00:46:53.120Z,4.00
2019-06-07T00:49:38.590Z,2.93
2019-06-07T00:51:54.116Z,4.13
2019-06-07T00:54:24.892Z,2.67
2019-06-07T00:56:54.649Z,3.57
2019-06-07T00:59:29.126Z,2.80
2019-06-07T01:01:55.346Z,3.80
2019-06-07T01:04:26.332Z,3.47
2019-06-07T01:06:55.905Z,3.17
2019-06-07T01:09:25.662Z,4.13
2019-06-07T01:11:55.429Z,3.20
2019-06-07T01:14:28.151Z,3.27
2019-06-07T01:17:01.441Z,3.07
2019-06-07T01:19:27.814Z,3.43
2019-06-07T01:21:57.748Z,3.97
2019-06-07T01:24:28.045Z,3.57
2019-06-07T01:26:57.648Z,4.23
2019-06-07T01:29:30.364Z,4.27
2019-06-07T01:31:58.164Z,3.70
2019-06-07T01:34:28.870Z,4.97
2019-06-07T01:36:58.457Z,3.60
2019-06-07T01:39:29.798Z,3.30
2019-06-07T01:41:59.258Z,4.27
2019-06-07T01:44:30.891Z,3.50
2019-06-07T01:46:59.745Z,3.50
2019-06-07T01:49:29.823Z,3.17
2019-06-07T01:51:59.706Z,3.50
2019-06-07T01:57:00.459Z,3.63
2019-06-07T01:59:31.570Z,3.63
2019-06-07T02:02:01.334Z,3.73
2019-06-07T02:04:33.195Z,3.40
2019-06-07T02:07:01.824Z,3.67
2019-06-07T02:09:32.347Z,4.60
2019-06-07T02:12:01.777Z,4.47
2019-06-07T02:14:33.625Z,3.43
2019-06-07T02:17:03.247Z,3.27
2019-06-07T02:19:33.558Z,4.57
2019-06-07T02:22:03.172Z,3.07
2019-06-07T02:24:35.800Z,3.50
2019-06-07T02:27:03.700Z,3.90
2019-06-07T02:29:33.832Z,3.70
2019-06-07T02:32:03.666Z,3.90
2019-06-07T02:34:38.590Z,3.67
2019-06-07T02:37:04.712Z,3.30
2019-06-07T02:39:40.468Z,3.60
2019-06-07T02:42:06.710Z,3.70
2019-06-07T02:44:39.386Z,3.70
2019-06-07T02:47:07.327Z,5.40
2019-06-07T02:49:40.946Z,3.93
2019-06-07T02:52:08.080Z,3.87
2019-06-07T02:54:40.460Z,3.83
2019-06-07T02:57:08.812Z,3.50
2019-06-07T03:00:04.358Z,3.50
2019-06-07T03:02:09.933Z,3.33
2019-06-07T03:04:44.544Z,4.87
2019-06-07T03:07:13.806Z,3.07
2019-06-07T03:09:44.518Z,4.90
2019-06-07T03:12:17.382Z,4.23
2019-06-07T03:14:47.469Z,3.33
2019-06-07T03:17:30.420Z,6.00
2019-06-07T03:20:02.597Z,4.70
2019-06-07T03:22:39.834Z,2.97
2019-06-07T03:25:07.235Z,5.30
2019-06-07T03:27:48.244Z,4.57
2019-06-07T03:30:36.225Z,3.13
2019-06-07T03:32:47.167Z,3.87
2019-06-07T03:35:12.273Z,3.40
2019-06-07T03:37:43.024Z,3.60
2019-06-07T03:40:12.869Z,3.10
2019-06-07T03:42:42.500Z,2.73
2019-06-07T03:45:11.881Z,2.60
2019-06-07T03:47:42.625Z,4.67
2019-06-07T03:50:12.472Z,3.30
2019-06-07T03:52:41.935Z,2.40
2019-06-07T03:55:11.697Z,2.87
2019-06-07T03:58:29.978Z,3.37
2019-06-07T04:00:12.600Z,2.47
2019-06-07T04:02:42.446Z,2.93
2019-06-07T04:05:11.855Z,2.40
2019-06-07T04:07:44.430Z,2.60
2019-06-07T04:10:12.913Z,3.03
2019-06-07T04:12:44.091Z,2.63
2019-06-07T04:15:14.090Z,4.70
2019-06-07T04:18:00.838Z,2.67
2019-06-07T04:20:15.062Z,2.10
2019-06-07T04:22:44.474Z,2.20
2019-06-07T04:25:14.582Z,3.77
2019-06-07T04:27:44.217Z,2.50
2019-06-07T04:30:18.192Z,2.00
2019-06-07T04:32:47.569Z,3.73
2019-06-07T04:35:16.953Z,3.47
2019-06-07T04:37:46.995Z,4.53
2019-06-07T04:40:16.761Z,4.55
2019-06-07T04:42:46.694Z,3.57
2019-06-07T04:45:32.998Z,3.83
2019-06-07T04:47:49.187Z,4.53
2019-06-07T04:50:18.635Z,3.33
2019-06-07T04:52:48.048Z,3.80
2019-06-07T04:55:17.425Z,2.53
2019-06-07T04:57:46.815Z,4.20
2019-06-07T05:00:48.723Z,3.57
2019-06-07T05:02:52.152Z,3.70
2019-06-07T05:05:21.548Z,4.10
2019-06-07T05:07:51.200Z,4.23
2019-06-07T05:10:20.571Z,5.27
2019-06-07T05:12:49.956Z,3.07
2019-06-07T05:15:19.405Z,2.97
2019-06-07T05:17:49.205Z,7.23
2019-06-07T05:20:18.974Z,4.00
2019-06-07T05:22:48.436Z,3.33
2019-06-07T05:25:18.138Z,2.67
2019-06-07T05:27:47.527Z,3.30
2019-06-07T05:31:02.983Z,3.67
2019-06-07T05:33:08.349Z,3.77
2019-06-07T05:35:41.702Z,6.50
2019-06-07T05:38:10.447Z,4.67
2019-06-07T05:40:47.753Z,4.00
2019-06-07T05:43:28.717Z,2.97
2019-06-07T05:45:58.170Z,3.20
2019-06-07T05:48:27.811Z,3.90
2019-06-07T05:50:57.881Z,3.63
2019-06-07T05:53:27.559Z,9.77
2019-06-07T05:55:56.941Z,2.40
2019-06-07T05:58:26.333Z,2.97
2019-06-07T06:00:55.716Z,2.37
2019-06-07T06:03:25.132Z,3.73
2019-06-07T06:05:55.725Z,3.73
2019-06-07T06:08:25.457Z,3.37
2019-06-07T06:10:55.111Z,3.63
2019-06-07T06:13:24.484Z,2.63
2019-06-07T06:16:01.201Z,2.73
2019-06-07T06:18:25.221Z,3.57
2019-06-07T06:21:15.548Z,1.83
2019-06-07T06:23:28.362Z,3.40
2019-06-07T06:25:58.493Z,3.60
2019-06-07T06:28:27.965Z,2.20
2019-06-07T06:30:57.348Z,2.40
2019-06-07T06:33:34.117Z,2.17
2019-06-07T06:35:58.353Z,2.73
2019-06-07T06:38:27.985Z,3.20
2019-06-07T06:41:14.688Z,3.30
2019-06-07T06:43:28.976Z,2.63
2019-06-07T06:45:58.368Z,2.40
2019-06-07T06:48:28.001Z,2.97
2019-06-07T06:50:57.388Z,3.17
2019-06-07T06:53:26.774Z,2.30
2019-06-07T06:55:57.970Z,3.40
2019-06-07T06:58:27.374Z,2.27
2019-06-07T07:01:06.471Z,2.93
2019-06-07T07:03:56.517Z,2.10
2019-06-07T07:06:24.807Z,3.47
2019-06-07T07:08:31.406Z,2.83
2019-06-07T07:11:01.044Z,3.47
2019-06-07T07:13:30.733Z,4.90
2019-06-07T07:16:00.323Z,2.87
2019-06-07T07:18:29.937Z,2.10
2019-06-07T07:20:59.569Z,2.30
2019-06-07T07:23:29.192Z,2.23
2019-06-07T07:26:00.102Z,3.30
2019-06-07T07:28:29.927Z,2.00
2019-06-07T07:30:59.538Z,2.87
2019-06-07T07:34:19.824Z,2.10
2019-06-07T07:36:22.741Z,2.97
2019-06-07T07:38:31.616Z,2.43
2019-06-07T07:41:13.936Z,2.73
2019-06-07T07:43:32.129Z,1.80
2019-06-07T07:46:03.134Z,1.87
2019-06-07T07:48:32.636Z,1.70
2019-06-07T07:51:03.437Z,2.00
2019-06-07T07:53:48.697Z,2.27
2019-06-07T07:56:04.455Z,2.80
2019-06-07T07:58:33.973Z,2.40
2019-06-07T08:01:09.989Z,2.00
2019-06-07T08:03:34.709Z,2.33
2019-06-07T08:06:04.164Z,2.70
2019-06-07T08:08:33.788Z,2.07
2019-06-07T08:11:03.419Z,9.90
2019-06-07T08:13:33.281Z,1.70
2019-06-07T08:16:09.090Z,2.40
2019-06-07T08:18:33.954Z,3.10
2019-06-07T08:21:21.369Z,1.97
2019-06-07T08:23:34.700Z,5.87
2019-06-07T08:26:04.093Z,1.47
2019-06-07T08:28:33.481Z,2.03
2019-06-07T08:31:06.935Z,3.27
2019-06-07T08:33:33.979Z,1.50
2019-06-07T08:36:17.508Z,1.00
2019-06-07T08:38:47.368Z,2.87
2019-06-07T08:41:12.043Z,2.30
2019-06-07T08:43:37.316Z,2.17
2019-06-07T08:46:08.000Z,2.00
2019-06-07T08:48:37.824Z,2.67
2019-06-07T08:51:08.528Z,1.80
2019-06-07T08:53:38.173Z,5.10
2019-06-07T08:56:11.086Z,2.23
2019-06-07T08:58:39.138Z,2.07
2019-06-07T09:01:09.159Z,2.53
2019-06-07T09:03:38.703Z,1.97
2019-06-07T09:06:53.806Z,2.93
2019-06-07T09:08:39.288Z,1.70
2019-06-07T09:11:11.109Z,3.53
2019-06-07T09:13:40.026Z,3.07
2019-06-07T09:16:09.414Z,2.63
2019-06-07T09:18:44.023Z,2.77
2019-06-07T09:21:10.143Z,2.57
2019-06-07T09:23:39.710Z,1.80
2019-06-07T09:26:17.668Z,2.60
2019-06-07T09:28:40.550Z,2.20
2019-06-07T09:31:12.492Z,2.60
2019-06-07T09:33:41.588Z,1.53
2019-06-07T09:36:13.138Z,2.70
2019-06-07T09:38:43.332Z,2.67
2019-06-07T09:41:12.713Z,1.57
2019-06-07T09:46:16.302Z,2.83
2019-06-07T09:49:10.651Z,2.10
2019-06-07T09:51:19.688Z,2.70
2019-06-07T09:53:47.104Z,2.10
2019-06-07T09:56:20.035Z,1.70
2019-06-07T09:58:52.566Z,1.23
2019-06-07T10:01:21.035Z,2.20
2019-06-07T10:03:50.434Z,2.77
2019-06-07T10:06:20.051Z,2.57
2019-06-07T10:11:20.800Z,2.13
2019-06-07T10:13:50.216Z,1.50
2019-06-07T10:16:19.820Z,1.60
2019-06-07T10:18:49.458Z,2.00
2019-06-07T10:21:18.840Z,2.13
2019-06-07T10:23:48.228Z,1.77
2019-06-07T10:26:17.863Z,1.80
2019-06-07T10:28:47.264Z,1.70
2019-06-07T10:31:16.891Z,2.30
2019-06-07T10:33:46.278Z,2.40
2019-06-07T10:36:15.667Z,1.60
2019-06-07T10:38:45.297Z,1.67
2019-06-07T10:41:14.696Z,2.95
2019-06-07T10:43:44.334Z,1.90
2019-06-07T10:46:14.029Z,1.53
2019-06-07T10:48:43.423Z,1.57
2019-06-07T10:51:14.749Z,1.70
2019-06-07T10:53:43.977Z,1.97
2019-06-07T10:56:13.610Z,1.70
2019-06-07T10:58:43.298Z,2.17
2019-06-07T11:01:14.435Z,2.17
2019-06-07T11:03:43.959Z,1.73
2019-06-07T11:06:14.229Z,2.77
2019-06-07T11:08:43.842Z,1.60
2019-06-07T11:11:14.382Z,1.90
2019-06-07T11:13:43.935Z,2.20
2019-06-07T11:16:15.479Z,2.17
2019-06-07T11:18:44.922Z,1.73
2019-06-07T11:21:14.545Z,2.07
2019-06-07T11:23:43.932Z,1.77
2019-06-07T11:26:14.439Z,1.60
2019-06-07T11:28:44.120Z,1.83
2019-06-07T11:31:14.948Z,1.70
2019-06-07T11:33:44.712Z,1.77
2019-06-07T11:36:15.277Z,2.17
2019-06-07T11:38:44.794Z,2.17
2019-06-07T11:41:15.693Z,2.47
2019-06-07T11:43:45.294Z,4.33
2019-06-07T11:46:15.141Z,2.60
2019-06-07T11:48:44.638Z,1.90
2019-06-07T11:51:14.961Z,3.07
2019-06-07T11:53:44.667Z,1.90
2019-06-07T11:56:14.251Z,3.40
2019-06-07T11:58:43.889Z,1.40
2019-06-07T12:01:14.967Z,1.70
2019-06-07T12:03:44.642Z,4.13
2019-06-07T12:06:14.963Z,2.70
2019-06-07T12:08:45.845Z,1.70
2019-06-07T12:11:16.400Z,2.73
2019-06-07T12:13:46.139Z,2.43
2019-06-07T12:16:17.253Z,1.97
2019-06-07T12:18:46.979Z,2.40
2019-06-07T12:21:17.930Z,2.10
2019-06-07T12:23:47.455Z,2.60
2019-06-07T12:26:18.494Z,2.73
2019-06-07T12:28:47.962Z,1.90
2019-06-07T12:31:17.583Z,4.47
2019-06-07T12:33:47.234Z,2.40
2019-06-07T12:36:17.779Z,1.90
2019-06-07T12:38:47.475Z,2.20
2019-06-07T12:41:16.859Z,2.67
2019-06-07T12:43:46.236Z,2.07
2019-06-07T12:46:21.151Z,3.07
2019-06-07T12:48:46.978Z,2.13
2019-06-07T12:51:17.220Z,2.20
2019-06-07T12:53:46.627Z,2.23
2019-06-07T12:56:16.023Z,3.07
2019-06-07T12:58:45.676Z,2.30
2019-06-07T13:01:15.942Z,2.40
2019-06-07T13:03:45.367Z,3.20
2019-06-07T13:06:15.427Z,2.40
2019-06-07T13:08:45.012Z,2.50
2019-06-07T13:11:21.270Z,2.40
2019-06-07T13:13:45.516Z,3.30
2019-06-07T13:16:16.531Z,3.07
2019-06-07T13:18:46.738Z,2.83
2019-06-07T13:21:16.375Z,3.07
2019-06-07T13:23:46.002Z,2.50
2019-06-07T13:26:16.931Z,2.67
2019-06-07T13:28:46.948Z,2.30
2019-06-07T13:31:16.561Z,2.37
2019-06-07T13:33:46.142Z,4.13
2019-06-07T13:36:16.320Z,2.30
2019-06-07T13:38:45.664Z,2.33
2019-06-07T13:41:30.172Z,2.60
2019-06-07T13:43:46.664Z,3.00
2019-06-07T13:46:16.871Z,2.37
2019-06-07T13:48:46.357Z,2.50
2019-06-07T13:51:15.744Z,2.50
2019-06-07T13:53:45.384Z,2.80
2019-06-07T13:56:14.776Z,2.63
2019-06-07T13:58:44.408Z,3.10
2019-06-07T14:01:13.792Z,2.50
2019-06-07T14:03:43.191Z,3.00
2019-06-07T14:06:12.576Z,2.60
2019-06-07T14:08:42.234Z,2.87
2019-06-07T14:11:11.635Z,2.60
2019-06-07T14:13:41.266Z,3.00
2019-06-07T14:16:10.953Z,2.70
2019-06-07T14:18:40.587Z,3.37
2019-06-07T14:21:10.228Z,2.90
2019-06-07T14:23:48.642Z,2.97
2019-06-07T14:26:10.973Z,2.90
2019-06-07T14:28:40.366Z,2.60
2019-06-07T14:31:09.985Z,3.37
2019-06-07T14:33:39.620Z,2.50
2019-06-07T14:36:10.116Z,3.23
2019-06-07T14:38:39.496Z,2.70
2019-06-07T14:41:08.885Z,3.33
2019-06-07T14:43:38.698Z,3.13
2019-06-07T14:46:09.716Z,2.50
2019-06-07T14:48:39.313Z,3.23
2019-06-07T14:51:08.945Z,3.43
2019-06-07T14:53:38.330Z,3.33
2019-06-07T14:56:07.790Z,3.80
2019-06-07T14:58:42.772Z,4.13
2019-06-07T15:01:08.775Z,3.30
2019-06-07T15:03:39.031Z,3.63
2019-06-07T15:06:08.872Z,3.53
2019-06-07T15:08:39.184Z,3.23
2019-06-07T15:11:08.566Z,3.23
2019-06-07T15:13:39.756Z,3.40
2019-06-07T15:16:09.253Z,3.57
2019-06-07T15:18:38.629Z,3.50
2019-06-07T15:21:08.010Z,3.23
2019-06-07T15:23:37.405Z,3.17
2019-06-07T15:26:07.051Z,4.80
2019-06-07T15:28:38.433Z,3.20
2019-06-07T15:31:07.848Z,3.30
2019-06-07T15:33:38.401Z,3.20
2019-06-07T15:36:07.856Z,2.97
2019-06-07T15:38:37.363Z,3.40
2019-06-07T15:41:06.746Z,3.20
2019-06-07T15:43:37.382Z,2.80
2019-06-07T15:46:06.887Z,4.40
2019-06-07T15:48:36.276Z,3.13
2019-06-07T15:51:05.653Z,4.57
2019-06-07T15:53:39.902Z,4.47
2019-06-07T15:56:07.248Z,3.67
2019-06-07T15:58:37.223Z,3.10
2019-06-07T16:01:06.594Z,2.90
2019-06-07T16:03:36.001Z,2.70
2019-06-07T16:06:05.457Z,2.67
2019-06-07T16:08:36.248Z,2.70
2019-06-07T16:11:05.745Z,2.57
2019-06-07T16:13:35.102Z,2.90
2019-06-07T16:16:04.685Z,4.07
2019-06-07T16:18:35.221Z,3.00
2019-06-07T16:21:04.625Z,3.30
2019-06-07T16:23:34.012Z,3.03
2019-06-07T16:26:03.410Z,7.93
2019-06-07T16:28:34.193Z,2.73
2019-06-07T16:31:03.621Z,3.00
2019-06-07T16:33:33.009Z,2.93
2019-06-07T16:36:02.659Z,2.97
2019-06-07T16:38:32.044Z,3.20
2019-06-07T16:41:01.673Z,3.33
2019-06-07T16:43:31.325Z,3.10
2019-06-07T16:46:00.962Z,3.30
2019-06-07T16:48:30.329Z,2.70
2019-06-07T16:50:59.973Z,3.30
2019-06-07T16:53:29.358Z,3.40
2019-06-07T16:55:58.737Z,3.73
2019-06-07T16:58:28.124Z,2.83
2019-06-07T17:00:57.578Z,3.40
2019-06-07T17:03:27.232Z,3.40
2019-06-07T17:05:58.390Z,2.97
2019-06-07T17:08:27.778Z,3.30
2019-06-07T17:10:57.152Z,3.20
2019-06-07T17:13:33.413Z,2.90
2019-06-07T17:15:57.886Z,5.60
2019-06-07T17:18:27.290Z,3.17
2019-06-07T17:20:56.659Z,2.90
2019-06-07T17:23:26.055Z,3.40
2019-06-07T17:25:55.437Z,3.23
2019-06-07T17:28:25.071Z,2.80
2019-06-07T17:30:55.904Z,3.20
2019-06-07T17:33:25.220Z,2.83
2019-06-07T17:35:54.844Z,2.70
2019-06-07T17:38:24.233Z,2.77
2019-06-07T17:40:53.883Z,3.10
2019-06-07T17:43:23.523Z,2.87
2019-06-07T17:45:52.902Z,3.10
2019-06-07T17:48:24.056Z,2.60
2019-06-07T17:50:53.556Z,5.63
2019-06-07T17:53:22.941Z,3.57
2019-06-07T17:55:52.444Z,3.70
2019-06-07T17:58:21.976Z,5.80
2019-06-07T18:00:53.343Z,4.53
2019-06-07T18:03:22.769Z,4.40
2019-06-07T18:05:54.176Z,3.93
2019-06-07T18:08:25.383Z,3.20
2019-06-07T18:10:55.028Z,4.63
2019-06-07T18:13:24.408Z,4.70
2019-06-07T18:15:58.958Z,9.27
2019-06-07T18:18:25.157Z,3.67
2019-06-07T18:20:55.651Z,5.63
2019-06-07T18:23:25.062Z,3.50
2019-06-07T18:25:54.843Z,5.40
2019-06-07T18:28:24.216Z,3.80
2019-06-07T18:30:54.665Z,4.00
2019-06-07T18:33:24.521Z,4.20
2019-06-07T18:35:55.219Z,3.73
2019-06-07T18:38:24.668Z,4.00
2019-06-07T18:40:55.373Z,5.70
2019-06-07T18:43:24.767Z,3.87
2019-06-07T18:45:55.859Z,3.50
2019-06-07T18:48:25.266Z,3.90
2019-06-07T18:50:54.774Z,3.77
2019-06-07T18:53:24.123Z,3.97
2019-06-07T18:55:54.020Z,3.97
2019-06-07T18:58:23.710Z,4.47
2019-06-07T19:00:53.846Z,4.60
2019-06-07T19:03:23.528Z,4.60
2019-06-07T19:05:54.178Z,4.67
2019-06-07T19:08:23.941Z,6.00
2019-06-07T19:10:53.333Z,4.83
2019-06-07T19:13:22.718Z,4.83
2019-06-07T19:15:53.326Z,5.13
2019-06-07T19:18:23.000Z,4.30
2019-06-07T19:20:52.664Z,4.83
2019-06-07T19:23:22.252Z,5.30
2019-06-07T19:25:52.213Z,5.23
2019-06-07T19:28:21.632Z,5.17
2019-06-07T19:30:51.028Z,5.00
2019-06-07T19:33:20.409Z,6.30
2019-06-07T19:35:49.799Z,5.50
2019-06-07T19:38:19.176Z,5.33
2019-06-07T19:40:48.812Z,5.23
2019-06-07T19:43:18.221Z,5.37
2019-06-07T19:45:47.584Z,5.70
2019-06-07T19:48:16.960Z,5.97
2019-06-07T19:50:46.596Z,6.93
2019-06-07T19:53:16.222Z,5.87
2019-06-07T19:55:45.858Z,6.97
2019-06-07T19:58:15.237Z,6.97
2019-06-07T20:00:44.622Z,7.60
2019-06-07T20:03:14.247Z,7.40
2019-06-07T20:05:43.624Z,8.20
2019-06-07T20:08:13.275Z,8.47
2019-06-07T20:10:42.654Z,8.20
2019-06-07T20:13:12.047Z,8.33
2019-06-07T20:15:41.674Z,7.30
2019-06-07T20:18:11.304Z,7.90
2019-06-07T20:20:40.687Z,9.67
2019-06-07T20:23:10.075Z,9.37
2019-06-07T20:25:39.463Z,9.10
2019-06-07T20:28:09.417Z,9.30
2019-06-07T20:30:39.046Z,9.40
2019-06-07T20:33:08.437Z,9.63
2019-06-07T20:35:37.815Z,8.43
2019-06-07T20:38:07.208Z,9.10
2019-06-07T20:40:36.829Z,9.00
2019-06-07T20:43:06.257Z,9.83
2019-06-07T20:45:36.278Z,9.77
2019-06-07T20:48:06.336Z,9.73
2019-06-07T20:50:35.827Z,10.30
2019-06-07T20:53:05.343Z,10.63
2019-06-07T20:55:34.683Z,11.20
2019-06-07T20:58:05.499Z,10.60
2019-06-07T21:00:34.982Z,10.63
2019-06-07T21:03:05.466Z,11.97
2019-06-07T21:05:34.852Z,11.50
2019-06-07T21:08:08.935Z,11.70
2019-06-07T21:10:35.420Z,11.03
2019-06-07T21:13:05.929Z,9.67
2019-06-07T21:15:47.841Z,10.57
2019-06-07T21:18:16.302Z,11.20
2019-06-07T21:20:37.552Z,11.63
2019-06-07T21:23:06.946Z,9.60
2019-06-07T21:25:36.328Z,10.53
2019-06-07T21:28:07.173Z,11.67
2019-06-07T21:30:36.879Z,10.90
2019-06-07T21:33:07.637Z,10.27
2019-06-07T21:35:37.324Z,11.10
2019-06-07T21:38:07.847Z,11.03
2019-06-07T21:40:37.243Z,10.80
2019-06-07T21:43:08.622Z,11.27
2019-06-07T21:45:38.057Z,9.43
2019-06-07T21:48:08.710Z,10.53
2019-06-07T21:50:38.477Z,10.10
2019-06-07T21:53:08.579Z,7.70
2019-06-07T21:55:37.984Z,8.73
2019-06-07T21:58:09.009Z,9.43
2019-06-07T22:01:04.694Z,9.03
2019-06-07T22:03:35.428Z,7.10
2019-06-07T22:06:05.656Z,9.37
2019-06-07T22:08:35.095Z,9.67
2019-06-07T22:11:05.957Z,8.40
2019-06-07T22:13:35.443Z,8.17
2019-06-07T22:16:20.853Z,9.13
2019-06-07T22:18:36.170Z,8.17
2019-06-07T22:21:06.395Z,8.63
2019-06-07T22:23:35.819Z,9.50
2019-06-07T22:26:05.274Z,8.33
2019-06-07T22:28:34.906Z,8.87
2019-06-07T22:31:04.535Z,9.13
2019-06-07T22:33:33.927Z,10.17
2019-06-07T22:36:03.618Z,8.40
2019-06-07T22:38:33.031Z,9.57
2019-06-07T22:41:02.431Z,8.83
2019-06-07T22:43:31.793Z,9.73
2019-06-07T22:46:01.199Z,10.17
2019-06-07T22:48:30.859Z,9.07
2019-06-07T22:51:02.127Z,9.13
2019-06-07T22:53:31.748Z,9.20
2019-06-07T22:56:02.774Z,8.63
2019-06-07T22:58:32.155Z,8.97
2019-06-07T23:01:01.550Z,9.63
2019-06-07T23:03:30.927Z,5.93
2019-06-07T23:06:00.554Z,9.30
2019-06-07T23:08:30.176Z,8.47
2019-06-07T23:10:59.813Z,8.63
2019-06-07T23:13:29.186Z,9.97
2019-06-07T23:15:58.580Z,9.90
2019-06-07T23:18:27.970Z,10.17
2019-06-07T23:20:57.601Z,9.95
2019-06-07T23:23:26.984Z,8.73
2019-06-07T23:25:56.367Z,10.30
2019-06-07T23:28:26.013Z,9.80
2019-06-07T23:30:55.396Z,8.60
2019-06-07T23:33:24.846Z,10.00
2019-06-07T23:35:54.233Z,9.63
2019-06-07T23:38:23.867Z,10.13
2019-06-07T23:40:53.265Z,10.60
2019-06-07T23:43:22.896Z,10.10
2019-06-07T23:45:52.273Z,9.63
2019-06-07T23:48:21.735Z,10.53
2019-06-07T23:50:51.133Z,10.13
2019-06-07T23:53:22.054Z,10.63
2019-06-07T23:55:51.531Z,10.43
2019-06-07T23:58:22.238Z,9.80
